createdAt,value
2022-10-06T04:13:55.131Z,0.00
2022-10-06T04:14:59.957Z,0.00
2022-10-06T04:15:56.100Z,0.00
2022-10-06T04:16:56.018Z,0.00
2022-10-06T04:17:56.024Z,0.00
2022-10-06T04:18:55.997Z,0.00
2022-10-06T04:20:02.501Z,0.00
2022-10-06T04:20:55.972Z,0.00
2022-10-06T04:21:55.965Z,0.00
2022-10-06T04:22:55.930Z,0.00
2022-10-06T04:23:55.962Z,0.00
2022-10-06T04:24:55.943Z,0.00
2022-10-06T04:25:56.136Z,0.00
2022-10-06T04:26:55.923Z,0.00
2022-10-06T04:27:55.907Z,0.00
2022-10-06T04:28:55.873Z,0.00
2022-10-06T04:29:55.882Z,0.00
2022-10-06T04:30:55.876Z,0.00
2022-10-06T04:31:55.877Z,0.00
2022-10-06T04:32:55.864Z,0.00
2022-10-06T04:33:55.820Z,0.00
2022-10-06T04:34:55.822Z,0.00
2022-10-06T04:35:55.794Z,0.00
2022-10-06T04:36:55.788Z,0.00
2022-10-06T04:37:55.768Z,0.00
2022-10-06T04:38:55.779Z,0.00
2022-10-06T04:39:55.754Z,0.00
2022-10-06T04:40:55.739Z,0.00
2022-10-06T04:42:02.253Z,0.00
2022-10-06T04:42:55.718Z,0.00
2022-10-06T04:43:55.764Z,0.00
2022-10-06T04:44:55.718Z,0.00
2022-10-06T04:45:55.736Z,0.00
2022-10-06T04:46:55.718Z,0.00
2022-10-06T04:47:55.675Z,0.00
2022-10-06T04:48:55.690Z,0.00
2022-10-06T04:49:55.632Z,0.00
2022-10-06T04:50:55.646Z,0.00
2022-10-06T04:51:55.629Z,0.00
2022-10-06T04:52:55.612Z,0.00
2022-10-06T04:53:55.582Z,0.00
2022-10-06T04:54:55.586Z,0.00
2022-10-06T04:55:55.569Z,0.00
2022-10-06T04:56:55.584Z,0.00
2022-10-06T04:57:55.570Z,0.00
2022-10-06T04:58:55.539Z,0.00
2022-10-06T04:59:55.528Z,0.00
2022-10-06T05:00:55.598Z,0.00
2022-10-06T05:01:55.531Z,0.00
2022-10-06T05:02:55.496Z,0.00
2022-10-06T05:03:55.493Z,0.00
2022-10-06T05:04:55.466Z,0.00
2022-10-06T05:05:55.480Z,0.00
2022-10-06T05:06:55.464Z,0.00
2022-10-06T05:07:55.422Z,0.00
2022-10-06T05:08:55.421Z,0.00
2022-10-06T05:09:55.411Z,0.00
2022-10-06T05:10:55.405Z,0.00
2022-10-06T05:12:02.257Z,0.00
2022-10-06T05:12:55.374Z,0.00
2022-10-06T05:13:55.371Z,0.00
2022-10-06T05:14:55.428Z,0.00
2022-10-06T05:15:55.356Z,0.00
2022-10-06T05:16:55.319Z,0.00
2022-10-06T05:17:55.310Z,0.00
2022-10-06T05:18:55.313Z,0.00
2022-10-06T05:19:55.294Z,0.00
2022-10-06T05:20:55.279Z,0.00
2022-10-06T05:21:55.275Z,0.00
2022-10-06T05:22:55.248Z,0.00
2022-10-06T05:23:55.261Z,0.00
2022-10-06T05:24:55.249Z,0.00
2022-10-06T05:25:55.230Z,0.00
2022-10-06T05:26:58.371Z,0.00
2022-10-06T05:27:55.249Z,0.00
2022-10-06T05:28:55.198Z,0.00
2022-10-06T05:29:55.184Z,0.00
2022-10-06T05:30:55.162Z,0.00
2022-10-06T05:31:55.195Z,0.00
2022-10-06T05:32:55.135Z,0.00
2022-10-06T05:33:55.137Z,0.00
2022-10-06T05:34:55.147Z,5.62
2022-10-06T05:35:55.113Z,5.62
2022-10-06T05:36:55.099Z,5.62
2022-10-06T05:37:55.083Z,5.62
2022-10-06T05:38:55.080Z,5.62
2022-10-06T05:39:55.077Z,5.62
2022-10-06T05:40:55.042Z,5.62
2022-10-06T05:41:55.099Z,5.62
2022-10-06T05:42:55.059Z,5.62
2022-10-06T05:43:55.217Z,11.25
2022-10-06T05:44:55.004Z,11.25
2022-10-06T05:45:55.113Z,11.25
2022-10-06T05:46:55.002Z,11.25
2022-10-06T05:47:54.969Z,11.25
2022-10-06T05:48:54.969Z,11.25
2022-10-06T05:49:54.943Z,16.88
2022-10-06T05:50:54.953Z,16.88
2022-10-06T05:51:54.953Z,16.88
2022-10-06T05:52:54.911Z,16.88
2022-10-06T05:53:54.919Z,16.88
2022-10-06T05:54:54.901Z,22.50
2022-10-06T05:55:54.874Z,22.50
2022-10-06T05:56:54.866Z,22.50
2022-10-06T05:57:54.856Z,22.50
2022-10-06T05:58:54.882Z,28.12
2022-10-06T05:59:54.841Z,28.12
2022-10-06T06:00:54.852Z,28.12
2022-10-06T06:01:55.062Z,28.12
2022-10-06T06:02:54.848Z,28.12
2022-10-06T06:03:54.793Z,33.75
2022-10-06T06:04:54.800Z,33.75
2022-10-06T06:05:54.776Z,33.75
2022-10-06T06:06:54.786Z,33.75
2022-10-06T06:07:54.749Z,33.75
2022-10-06T06:08:54.733Z,39.38
2022-10-06T06:09:54.744Z,39.38
2022-10-06T06:10:54.723Z,39.38
2022-10-06T06:11:54.701Z,39.38
2022-10-06T06:12:54.687Z,45.00
2022-10-06T06:13:54.688Z,45.00
2022-10-06T06:14:54.705Z,45.00
2022-10-06T06:15:54.672Z,45.00
2022-10-06T06:16:54.782Z,45.00
2022-10-06T06:17:54.681Z,45.00
2022-10-06T06:18:54.621Z,50.62
2022-10-06T06:19:54.623Z,50.62
2022-10-06T06:20:54.607Z,50.62
2022-10-06T06:21:54.606Z,50.62
2022-10-06T06:22:54.587Z,56.25
2022-10-06T06:23:54.575Z,56.25
2022-10-06T06:24:54.564Z,56.25
2022-10-06T06:25:57.638Z,56.25
2022-10-06T06:26:54.548Z,56.25
2022-10-06T06:27:54.531Z,61.88
2022-10-06T06:28:54.633Z,61.88
2022-10-06T06:29:54.500Z,61.88
2022-10-06T06:30:54.544Z,61.88
2022-10-06T06:31:54.482Z,61.88
2022-10-06T06:32:54.486Z,61.88
2022-10-06T06:33:54.461Z,61.88
2022-10-06T06:34:54.497Z,61.88
2022-10-06T06:35:54.432Z,61.88
2022-10-06T06:36:54.420Z,67.50
2022-10-06T06:37:54.419Z,67.50
2022-10-06T06:38:54.399Z,67.50
2022-10-06T06:39:54.417Z,67.50
2022-10-06T06:40:54.382Z,67.50
2022-10-06T06:41:54.375Z,67.50
2022-10-06T06:42:54.363Z,67.50
2022-10-06T06:43:54.353Z,67.50
2022-10-06T06:44:54.349Z,67.50
2022-10-06T06:45:54.363Z,67.50
2022-10-06T06:46:54.322Z,67.50
2022-10-06T06:47:54.360Z,67.50
2022-10-06T06:48:54.297Z,67.50
2022-10-06T06:49:54.284Z,67.50
2022-10-06T06:50:54.274Z,67.50
2022-10-06T06:51:54.252Z,67.50
2022-10-06T06:52:54.238Z,61.88
2022-10-06T06:53:54.241Z,67.50
2022-10-06T06:54:54.251Z,67.50
2022-10-06T06:55:54.228Z,67.50
2022-10-06T06:56:54.205Z,67.50
2022-10-06T06:57:54.181Z,73.12
2022-10-06T06:58:54.187Z,73.12
2022-10-06T06:59:54.178Z,73.12
2022-10-06T07:00:54.214Z,73.12
2022-10-06T07:01:54.165Z,73.12
